Flight Track Log - Related Links

Times and Time Zones

All times are in EDT time to prevent confusion due to time zone crossing. See the SWA1044 flight status page for this flight to view local times or setup timezone preferences in your user account.

Time Position Orientation Groundspeed Altitude Reporting Facility
EDT Latitude Longitude Course Direction KTS km/h feet Rate Location/Type
Fri 08:22:20 44.8950 -93.2533 271° West 182 336 2.500  Level FAA TRACON SMA TRACON (SMA)
Fri 08:22:40 44.8956 -93.2842 271° West 212 393 4.100 4.200 Climbing FAA TRACON SMA TRACON (SMA)
Fri 08:23:00 44.8922 -93.3086 259° West 211 391 5.300 3.300 Climbing FAA TRACON SMA TRACON (SMA)
Fri 08:23:20 44.8850 -93.3425 253° West 232 430 6.300 3.000 Climbing FAA TRACON SMA TRACON (SMA)
Fri 08:23:40 44.8700 -93.3650 227° Southwest 257 476 7.300 3.450 Climbing FAA TRACON SMA TRACON (SMA)
Fri 08:24:00 44.8483 -93.3775 202° Southwest 273 505 8.600 4.050 Climbing FAA TRACON SMA TRACON (SMA)
Fri 08:24:20 44.8211 -93.3922 201° Southwest 273 505 10.000 3.600 Climbing FAA TRACON SMA TRACON (SMA)
Fri 08:24:40 44.7981 -93.4044 201° Southwest 283 525 11.000 2.700 Climbing FAA TRACON SMA TRACON (SMA)
Fri 08:25:00 44.7747 -93.4200 205° Southwest 297 550 11.800 2.550 Climbing FAA TRACON SMA TRACON (SMA)
Fri 08:25:20 44.7425 -93.4392 203° Southwest 323 599 12.700 2.700 Climbing FAA TRACON SMA TRACON (SMA)
Fri 08:25:40 44.7150 -93.4547 202° Southwest 341 631 13.600 2.700 Climbing FAA TRACON SMA TRACON (SMA)
Fri 08:26:00 44.6872 -93.4717 203° Southwest 354 655 14.500 3.300 Climbing FAA TRACON SMA TRACON (SMA)
Fri 08:26:20 44.6503 -93.4922 202° Southwest 368 681 15.800 3.600 Climbing FAA TRACON SMA TRACON (SMA)
Fri 08:26:40 44.6211 -93.5094 203° Southwest 372 689 16.900 3.600 Climbing FAA TRACON SMA TRACON (SMA)
Fri 08:27:00 44.5911 -93.5267 202° Southwest 376 697 18.200 3.900 Climbing FAA TRACON SMA TRACON (SMA)
Fri 08:27:20 44.5539 -93.5494 204° Southwest 380 703 19.500 3.450 Climbing FAA TRACON SMA TRACON (SMA)
Fri 08:27:40 44.5233 -93.5667 202° Southwest 384 711 20.500 2.850 Climbing FAA TRACON SMA TRACON (SMA)
Fri 08:28:00 44.4928 -93.5847 203° Southwest 388 719 21.400 2.850 Climbing FAA TRACON SMA TRACON (SMA)
Fri 08:28:20 44.4542 -93.6075 203° Southwest 393 727 22.400 2.550 Climbing FAA TRACON SMA TRACON (SMA)
Fri 08:28:40 44.4225 -93.6264 203° Southwest 398 737 23.100 2.250 Climbing FAA TRACON SMA TRACON (SMA)
Fri 08:29:00 44.3919 -93.6492 208° Southwest 403 747 23.900 2.700 Climbing FAA TRACON SMA TRACON (SMA)
Fri 08:29:20 44.3544 -93.6806 211° Southwest 408 756 24.900 2.923 Climbing FAA TRACON SMA TRACON (SMA)
Fri 08:29:39 44.3244 -93.7058 211° Southwest 411 761 25.800 2.400 Climbing FAA TRACON SMA TRACON (SMA)
Fri 08:30:00 44.2939 -93.7314 211° Southwest 415 769 26.500 2.341 Climbing FAA TRACON SMA TRACON (SMA)
Fri 08:30:20 44.2547 -93.7619 209° Southwest 419 776 27.400 2.550 Climbing FAA TRACON SMA TRACON (SMA)
Fri 08:30:40 44.2228 -93.7867 209° Southwest 424 785 28.200 2.100 Climbing FAA TRACON SMA TRACON (SMA)
Fri 08:31:00 44.1922 -93.8142 213° Southwest 426 789 28.800 1.650 Climbing FAA TRACON SMA TRACON (SMA)
Fri 08:31:20 44.1514 -93.8456 209° Southwest 435 806 29.300 1.500 Climbing FAA TRACON SMA TRACON (SMA)
Fri 08:31:40 44.1186 -93.8725 211° Southwest 442 819 29.800 1.500 Climbing FAA TRACON SMA TRACON (SMA)
Fri 08:32:00 44.0856 -93.9000 211° Southwest 448 830 30.300 1.950 Climbing FAA TRACON SMA TRACON (SMA)
Fri 08:32:20 44.0439 -93.9347 211° Southwest 453 838 31.100 2.282 Climbing FAA TRACON SMA TRACON (SMA)
Fri 08:33:11 43.9561 -93.9989 208° Southwest 450 834 33.000 2.304 Climbing Minneapolis Center
Fri 08:34:12 43.8508 -94.0822 210° Southwest 444 822 35.400 1.463 Climbing Minneapolis Center
Fri 08:35:14 43.7392 -94.1358 199° South 433 801 36.000 293 Climbing Minneapolis Center
Fri 08:36:15 43.6142 -94.1514 185° South 449 832 36.000  Level Minneapolis Center
Fri 08:37:16 43.4778 -94.1711 186° South 449 832 36.000  Level Minneapolis Center
Fri 08:38:17 43.3564 -94.1892 186° South 446 826 36.000  Level Minneapolis Center
Fri 08:39:18 43.2333 -94.2067 186° South 447 827 36.000  Level Minneapolis Center
Fri 08:40:20 43.1119 -94.2242 186° South 443 821 36.000  Level Minneapolis Center
Fri 08:41:21 42.9914 -94.2408 186° South 440 814 36.000 197 Level Minneapolis Center
Fri 08:42:22 42.8700 -94.2581 186° South 441 816 36.400 885 Climbing Minneapolis Center
Fri 08:43:23 42.7475 -94.2772 187° South 445 824 37.800 787 Climbing Minneapolis Center
Fri 08:44:24 42.6281 -94.2944 186° South 439 813 38.000 98 Climbing Minneapolis Center
Fri 08:45:26 42.4925 -94.3472 196° South 426 789 38.000  Level Minneapolis Center
Fri 08:46:27 42.3772 -94.3914 196° South 427 790 38.000  Level Minneapolis Center
Fri 08:47:28 42.2642 -94.4417 198° South 428 793 38.000  Level Minneapolis Center
Fri 08:48:29 42.1731 -94.4806 198° South 427 790 38.000  Level Minneapolis Center
Fri 08:49:31 42.0367 -94.5375 197° South 427 790 38.000  Level Minneapolis Center
Fri 08:50:32 41.9231 -94.5844 197° South 425 787 38.000  Level Minneapolis Center
Fri 08:51:33 41.8325 -94.6228 198° South 426 789 38.000  Level Minneapolis Center
Fri 08:52:34 41.6969 -94.6792 197° South 424 785 38.000 -488 Level Minneapolis Center
Fri 08:53:36 41.5822 -94.7258 197° South 427 790 37.000 -927 Descending Minneapolis Center
Fri 08:54:37 41.4681 -94.7739 198° South 427 790 36.100 -934 Descending Minneapolis Center
Fri 08:55:38 41.3567 -94.8189 197° South 421 779 35.100 -1.082 Descending Minneapolis Center
Fri 08:56:39 41.2236 -94.8747 198° South 416 771 33.900 -1.082 Descending Minneapolis Center
Fri 08:57:40 41.1111 -94.9197 197° South 417 772 32.900 -976 Descending Minneapolis Center
Fri 08:58:42 40.9997 -94.9656 197° South 418 774 31.900 -1.024 Descending Minneapolis Center
Fri 08:59:43 40.8867 -95.0103 197° South 420 777 30.800 -1.033 Descending Minneapolis Center
Fri 09:00:44 40.7786 -95.0553 198° South 414 766 29.800 -1.122 Descending Minneapolis Center
Fri 09:01:46 40.6739 -95.0967 197° South 401 742 28.500 -1.610 Descending Minneapolis Center
Fri 09:02:47 40.5725 -95.1378 197° South 390 723 26.500 -1.918 Descending Minneapolis Center
Fri 09:03:48 40.4739 -95.1775 197° South 377 698 24.600 -1.869 Descending Minneapolis Center
Fri 09:04:49 40.3786 -95.2150 197° South 363 673 22.700 -1.854 Descending Minneapolis Center
Fri 09:05:51 40.2850 -95.2525 197° South 356 660 20.800 -1.805 Descending Minneapolis Center
Fri 09:06:52 40.1944 -95.2892 197° South 346 641 19.000 -1.820 Descending Minneapolis Center
Fri 09:07:53 40.1069 -95.3231 197° South 334 618 17.100 -1.875 Descending Minneapolis Center
Fri 09:08:44 40.0294 -95.3514 196° South 325 602 15.500 -1.895 Descending Kansas City Center
Fri 09:09:47 39.9339 -95.3889 197° South 321 594 13.500 -1.694 Descending Kansas City Center
Fri 09:10:48 39.8519 -95.4139 193° South 320 592 12.000 -732 Descending Kansas City Center
Fri 09:11:50 39.7744 -95.3431 145° Southeast 356 660 12.000  Level Kansas City Center
Fri 09:12:49 39.6867 -95.2547 142° Southeast 357 661 12.000  Level Kansas City Center
Fri 09:13:52 39.6125 -95.1764 141° Southeast 357 661 12.000  Level Kansas City Center
Fri 09:14:53 39.5256 -95.0889 142° Southeast 353 653 12.000  Level Kansas City Center
Fri 09:15:54 39.4542 -95.0133 141° Southeast 345 639 12.000  Level Kansas City Center
Fri 09:16:55 39.4308 -94.9000 105° East 344 637 12.000 -198 Level Kansas City Center
Fri 09:17:55 39.4164 -94.7694 98° East 324 600 11.600 -1.065 Descending Kansas City Center
Fri 09:18:59 39.4050 -94.6636 98° East 311 576 9.800 -1.645 Descending Kansas City Center
Fri 09:19:59 39.3947 -94.5589 97° East 306 566 8.200 -1.672 Descending Kansas City Center
Fri 09:21:01 39.3819 -94.4439 98° East 289 536 6.400 -1.426 Descending Kansas City Center
Fri 09:22:01 39.3333 -94.3989 144° Southeast 268 496 5.300 -1.065 Descending Kansas City Center
Fri 09:23:05 39.2667 -94.4344 202° Southwest 238 441 4.200 -1.031 Descending Kansas City Center

Login

Don't have an account? Register now (free) for customized features, flight alerts, and more!